createdAt,value
2023-05-16T00:01:55.005Z,3.15
2023-05-16T00:04:29.887Z,3.87
2023-05-16T00:07:08.554Z,4.58
2023-05-16T00:09:44.871Z,4.70
2023-05-16T00:18:13.536Z,5.10
2023-05-16T00:20:46.127Z,4.33
2023-05-16T00:25:56.032Z,4.20
2023-05-16T00:28:25.800Z,4.10
2023-05-16T00:30:54.660Z,3.58
2023-05-16T00:33:33.177Z,3.37
2023-05-16T00:36:08.017Z,3.55
2023-05-16T00:38:39.606Z,3.15
2023-05-16T00:44:05.549Z,2.70
2023-05-16T00:46:40.829Z,2.87
2023-05-16T00:49:18.571Z,3.15
2023-05-16T00:52:13.960Z,4.35
2023-05-16T00:54:45.190Z,4.15
2023-05-16T00:57:17.693Z,4.42
2023-05-16T01:05:46.742Z,4.60
2023-05-16T01:08:33.950Z,3.50
2023-05-16T01:11:16.653Z,3.15
2023-05-16T01:13:56.721Z,3.15
2023-05-16T01:16:41.319Z,3.25
2023-05-16T01:19:31.492Z,3.30
2023-05-16T01:22:36.245Z,3.50
2023-05-16T01:25:28.364Z,3.72
2023-05-16T01:28:08.527Z,3.00
2023-05-16T01:30:46.173Z,2.33
2023-05-16T01:33:17.754Z,3.22
2023-05-16T01:36:28.609Z,2.52
2023-05-16T01:39:24.715Z,3.70
2023-05-16T01:42:27.091Z,4.37
2023-05-16T01:45:04.110Z,4.25
2023-05-16T01:47:46.573Z,3.02
2023-05-16T01:53:14.582Z,5.62
2023-05-16T01:56:05.887Z,4.97
2023-05-16T01:58:43.614Z,6.58
2023-05-16T02:01:23.377Z,6.60
2023-05-16T02:04:13.019Z,6.47
2023-05-16T02:07:01.979Z,5.40
2023-05-16T02:09:39.104Z,5.05
2023-05-16T02:12:36.062Z,4.97
2023-05-16T02:15:12.821Z,5.08
2023-05-16T02:18:12.717Z,5.95
2023-05-16T02:20:36.261Z,5.33
2023-05-16T02:23:10.959Z,5.60
2023-05-16T02:25:51.338Z,4.62
2023-05-16T02:28:21.696Z,4.05
2023-05-16T02:31:02.252Z,2.98
2023-05-16T02:33:57.929Z,3.15
2023-05-16T02:36:42.480Z,3.02
2023-05-16T02:39:18.175Z,5.03
2023-05-16T02:41:48.610Z,4.65
2023-05-16T02:44:17.517Z,3.50
2023-05-16T02:46:49.539Z,3.70
2023-05-16T02:49:20.095Z,5.50
2023-05-16T02:51:48.914Z,3.70
2023-05-16T02:54:28.635Z,3.62
2023-05-16T02:57:08.184Z,4.42
2023-05-16T02:59:44.313Z,3.77
2023-05-16T03:02:13.074Z,4.12
2023-05-16T03:04:41.948Z,4.45
2023-05-16T03:07:10.603Z,5.03
2023-05-16T03:09:39.170Z,4.47
2023-05-16T03:12:08.043Z,4.75
2023-05-16T03:14:36.596Z,4.28
2023-05-16T03:17:05.305Z,5.17
2023-05-16T03:19:34.294Z,4.80
2023-05-16T03:22:03.048Z,3.80
2023-05-16T03:24:31.681Z,4.25
2023-05-16T03:27:00.536Z,4.70
2023-05-16T03:29:48.465Z,3.45
2023-05-16T03:32:17.426Z,2.95
2023-05-16T03:34:46.771Z,3.50
2023-05-16T03:37:16.088Z,3.65
2023-05-16T03:39:44.663Z,4.17
2023-05-16T03:42:13.306Z,4.47
2023-05-16T03:45:31.213Z,4.25
2023-05-16T03:48:11.921Z,3.70
2023-05-16T03:56:39.050Z,3.83
2023-05-16T04:02:10.057Z,4.53
2023-05-16T04:04:47.312Z,4.67
2023-05-16T04:07:27.525Z,4.17
2023-05-16T04:10:14.057Z,4.08
2023-05-16T04:13:20.322Z,4.72
2023-05-16T04:15:27.483Z,4.40
2023-05-16T04:18:29.216Z,4.47
2023-05-16T04:21:16.307Z,4.12
2023-05-16T04:23:45.317Z,3.72
2023-05-16T04:26:21.704Z,4.00
2023-05-16T04:32:10.650Z,4.45
2023-05-16T04:34:51.960Z,4.12
2023-05-16T04:37:34.789Z,4.60
2023-05-16T04:42:36.104Z,3.27
2023-05-16T04:45:23.837Z,3.80
2023-05-16T04:47:57.319Z,4.60
2023-05-16T04:50:30.377Z,4.40
2023-05-16T04:53:04.875Z,4.97
2023-05-16T04:55:58.359Z,4.87
2023-05-16T04:58:30.329Z,3.70
2023-05-16T05:01:01.702Z,4.35
2023-05-16T05:03:30.065Z,4.50
2023-05-16T05:06:01.155Z,5.15
2023-05-16T05:08:32.364Z,4.55
2023-05-16T05:11:03.091Z,3.40
2023-05-16T05:13:33.400Z,4.45
2023-05-16T05:16:06.414Z,3.87
2023-05-16T05:18:35.221Z,4.40
2023-05-16T05:21:04.000Z,3.72
2023-05-16T05:23:46.159Z,3.30
2023-05-16T05:26:16.529Z,3.92
2023-05-16T05:29:30.831Z,4.00
2023-05-16T05:37:24.059Z,2.95
2023-05-16T05:42:58.146Z,3.08
2023-05-16T05:45:50.806Z,3.58
2023-05-16T05:48:28.159Z,3.20
2023-05-16T05:57:32.700Z,3.05
2023-05-16T06:00:17.705Z,3.10
2023-05-16T06:03:18.854Z,3.33
2023-05-16T06:06:05.107Z,3.17
2023-05-16T06:08:33.221Z,3.62
2023-05-16T06:11:02.038Z,3.98
2023-05-16T06:13:30.886Z,3.80
2023-05-16T06:16:01.445Z,3.25
2023-05-16T06:18:30.222Z,3.45
2023-05-16T06:20:58.889Z,3.47
2023-05-16T06:23:27.561Z,3.12
2023-05-16T06:25:56.190Z,3.17
2023-05-16T06:28:24.947Z,3.10
2023-05-16T06:30:53.733Z,3.02
2023-05-16T06:33:22.744Z,2.75
2023-05-16T06:35:52.425Z,2.75
2023-05-16T06:38:21.167Z,3.90
2023-05-16T06:40:49.767Z,3.00
2023-05-16T06:43:18.978Z,2.70
2023-05-16T06:45:47.662Z,3.40
2023-05-16T06:48:16.680Z,3.45
2023-05-16T06:50:50.920Z,3.37
2023-05-16T06:53:20.082Z,3.92
2023-05-16T06:55:48.865Z,3.10
2023-05-16T06:58:17.556Z,3.40
2023-05-16T07:00:46.567Z,2.95
2023-05-16T07:03:15.510Z,3.50
2023-05-16T07:05:47.105Z,3.55
2023-05-16T07:08:16.121Z,3.30
2023-05-16T07:10:45.013Z,3.33
2023-05-16T07:13:13.698Z,2.92
2023-05-16T07:15:43.061Z,3.37
2023-05-16T07:18:12.092Z,2.87
2023-05-16T07:20:40.710Z,2.80
2023-05-16T07:23:09.339Z,2.30
2023-05-16T07:25:38.144Z,2.87
2023-05-16T07:28:06.866Z,3.42
2023-05-16T07:30:35.542Z,2.83
2023-05-16T07:33:04.249Z,2.90
2023-05-16T07:35:33.088Z,2.87
2023-05-16T07:38:01.703Z,3.12
2023-05-16T07:40:30.401Z,2.25
2023-05-16T07:42:59.512Z,2.30
2023-05-16T07:45:28.723Z,2.37
2023-05-16T07:47:58.234Z,2.50
2023-05-16T07:50:27.377Z,2.52
2023-05-16T07:52:56.255Z,2.12
2023-05-16T07:55:24.993Z,2.67
2023-05-16T07:57:53.796Z,1.90
2023-05-16T08:00:22.844Z,2.20
2023-05-16T08:02:52.026Z,1.65
2023-05-16T08:05:20.821Z,2.30
2023-05-16T08:07:49.549Z,1.80
2023-05-16T08:10:18.437Z,1.95
2023-05-16T08:12:48.378Z,2.20
2023-05-16T08:15:17.008Z,1.85
2023-05-16T08:17:45.637Z,2.17
2023-05-16T08:20:14.694Z,2.10
2023-05-16T08:22:43.901Z,1.60
2023-05-16T08:25:12.540Z,1.70
2023-05-16T08:27:41.249Z,2.05
2023-05-16T08:30:11.986Z,2.17
2023-05-16T08:32:40.768Z,2.15
2023-05-16T08:35:10.965Z,1.80
2023-05-16T08:37:39.640Z,1.52
2023-05-16T08:40:10.574Z,2.27
2023-05-16T08:42:40.855Z,1.90
2023-05-16T08:45:11.564Z,1.70
2023-05-16T08:47:42.900Z,1.87
2023-05-16T08:50:11.940Z,1.55
2023-05-16T08:52:43.215Z,1.60
2023-05-16T08:55:13.572Z,1.80
2023-05-16T08:57:43.160Z,1.82
2023-05-16T09:00:13.640Z,1.70
2023-05-16T09:02:45.533Z,1.75
2023-05-16T09:05:16.501Z,1.47
2023-05-16T09:07:46.128Z,2.12
2023-05-16T09:10:14.867Z,1.75
2023-05-16T09:12:44.103Z,1.87
2023-05-16T09:15:13.050Z,2.08
2023-05-16T09:17:46.969Z,1.80
2023-05-16T09:20:21.500Z,2.22
2023-05-16T09:22:55.424Z,2.20
2023-05-16T09:25:30.112Z,2.10
2023-05-16T09:27:58.151Z,1.90
2023-05-16T09:30:32.213Z,2.10
2023-05-16T09:33:01.098Z,2.05
2023-05-16T09:38:00.224Z,2.20
2023-05-16T09:40:28.859Z,1.95
2023-05-16T09:43:06.048Z,1.90
2023-05-16T09:45:39.937Z,2.08
2023-05-16T09:48:12.758Z,1.80
2023-05-16T09:50:42.955Z,1.65
2023-05-16T09:53:13.434Z,1.70
2023-05-16T09:55:42.160Z,1.57
2023-05-16T09:58:12.834Z,1.52
2023-05-16T10:00:42.464Z,1.90
2023-05-16T10:03:12.454Z,1.60
2023-05-16T10:05:43.153Z,1.20
2023-05-16T10:08:12.348Z,1.30
2023-05-16T10:10:43.982Z,1.30
2023-05-16T10:13:14.916Z,1.60
2023-05-16T10:15:44.487Z,1.42
2023-05-16T10:18:16.810Z,1.90
2023-05-16T10:20:49.455Z,2.37
2023-05-16T10:25:52.712Z,1.50
2023-05-16T10:28:21.624Z,1.80
2023-05-16T10:30:51.632Z,2.65
2023-05-16T10:33:20.507Z,2.15
2023-05-16T10:35:49.676Z,1.52
2023-05-16T10:38:20.541Z,1.70
2023-05-16T10:40:50.382Z,1.40
2023-05-16T10:43:27.678Z,1.40
2023-05-16T10:45:58.107Z,2.08
2023-05-16T10:48:35.352Z,1.47
2023-05-16T10:51:07.726Z,1.47
2023-05-16T10:53:37.414Z,2.02
2023-05-16T10:56:09.029Z,1.52
2023-05-16T10:58:40.927Z,1.50
2023-05-16T11:01:30.273Z,1.90
2023-05-16T11:04:02.545Z,2.05
2023-05-16T11:06:34.103Z,1.92
2023-05-16T11:09:09.367Z,1.72
2023-05-16T11:11:49.128Z,1.55
2023-05-16T11:14:37.003Z,1.70
2023-05-16T11:17:22.859Z,2.37
2023-05-16T11:20:03.642Z,1.80
2023-05-16T11:22:36.674Z,2.30
2023-05-16T11:25:10.763Z,2.00
2023-05-16T11:27:44.521Z,1.65
2023-05-16T11:30:15.878Z,1.12
2023-05-16T11:32:46.614Z,1.42
2023-05-16T11:35:17.786Z,1.07
2023-05-16T11:37:46.992Z,1.05
2023-05-16T11:40:17.137Z,1.05
2023-05-16T11:42:48.369Z,0.98
2023-05-16T11:45:19.520Z,0.95
2023-05-16T11:47:50.398Z,1.10
2023-05-16T11:50:23.586Z,1.50
2023-05-16T11:52:56.277Z,1.22
2023-05-16T11:55:41.099Z,0.85
2023-05-16T11:58:00.663Z,1.00
2023-05-16T12:00:29.753Z,1.00
2023-05-16T12:03:05.066Z,1.07
2023-05-16T12:05:35.638Z,1.52
2023-05-16T12:08:25.575Z,1.10
2023-05-16T12:14:05.990Z,1.42
2023-05-16T12:16:56.890Z,1.47
2023-05-16T12:19:40.300Z,1.12
2023-05-16T12:22:44.167Z,1.25
2023-05-16T12:29:05.715Z,1.40
2023-05-16T12:32:10.450Z,1.40
2023-05-16T12:34:25.910Z,1.10
2023-05-16T12:37:07.120Z,0.90
2023-05-16T12:39:46.684Z,1.17
2023-05-16T12:56:03.146Z,0.68
2023-05-16T12:58:48.407Z,1.05
2023-05-16T13:01:28.571Z,1.05
2023-05-16T13:04:17.597Z,0.53
2023-05-16T13:07:12.709Z,1.12
2023-05-16T13:15:27.340Z,0.90
2023-05-16T13:18:10.314Z,0.95
2023-05-16T13:21:08.688Z,1.10
2023-05-16T13:24:01.168Z,1.02
2023-05-16T13:26:34.636Z,1.22
2023-05-16T13:29:08.708Z,0.90
2023-05-16T13:31:52.253Z,0.75
2023-05-16T13:34:23.275Z,1.00
2023-05-16T13:36:57.635Z,0.80
2023-05-16T13:39:37.132Z,0.90
2023-05-16T13:42:07.836Z,0.90
2023-05-16T13:44:46.296Z,1.10
2023-05-16T13:47:21.037Z,1.37
2023-05-16T13:49:51.130Z,1.20
2023-05-16T13:52:24.116Z,1.00
2023-05-16T13:55:17.997Z,1.30
2023-05-16T13:57:49.124Z,1.15
2023-05-16T14:03:02.937Z,0.98
2023-05-16T14:05:30.369Z,1.25
2023-05-16T14:08:01.915Z,1.63
2023-05-16T14:16:44.371Z,1.10
2023-05-16T14:21:06.759Z,1.30
2023-05-16T14:22:25.391Z,1.47
2023-05-16T14:25:50.802Z,1.47
2023-05-16T14:27:56.138Z,1.35
2023-05-16T14:31:02.084Z,1.55
2023-05-16T14:34:25.364Z,1.40
2023-05-16T14:50:00.167Z,1.47
2023-05-16T14:53:17.805Z,1.30
2023-05-16T15:01:35.808Z,1.52
2023-05-16T15:04:04.500Z,1.32
2023-05-16T15:06:33.175Z,1.80
2023-05-16T15:09:01.979Z,1.60
2023-05-16T15:11:32.173Z,1.70
2023-05-16T15:14:01.723Z,1.52
2023-05-16T15:16:31.443Z,2.08
2023-05-16T15:19:00.237Z,1.45
2023-05-16T15:21:28.985Z,1.42
2023-05-16T15:23:57.699Z,1.67
2023-05-16T15:26:26.467Z,1.80
2023-05-16T15:28:55.713Z,1.95
2023-05-16T15:31:24.406Z,1.72
2023-05-16T15:33:53.071Z,1.65
2023-05-16T15:36:21.689Z,1.50
2023-05-16T15:38:50.416Z,1.50
2023-05-16T15:41:36.779Z,1.70
2023-05-16T15:43:49.348Z,1.50
2023-05-16T15:46:18.023Z,1.62
2023-05-16T15:48:46.630Z,1.35
2023-05-16T15:51:16.024Z,1.90
2023-05-16T15:53:44.804Z,1.60
2023-05-16T15:56:13.444Z,2.35
2023-05-16T15:58:42.065Z,2.02
2023-05-16T16:01:10.858Z,1.50
2023-05-16T16:03:39.720Z,1.15
2023-05-16T16:06:08.621Z,1.50
2023-05-16T16:08:37.282Z,1.65
2023-05-16T16:11:06.055Z,1.42
2023-05-16T16:13:34.677Z,1.98
2023-05-16T16:16:03.428Z,1.75
2023-05-16T16:18:32.361Z,1.57
2023-05-16T16:21:01.392Z,1.55
2023-05-16T16:23:30.357Z,1.87
2023-05-16T16:25:59.000Z,1.42
2023-05-16T16:28:27.661Z,1.40
2023-05-16T16:30:56.300Z,1.67
2023-05-16T16:33:24.926Z,1.45
2023-05-16T16:35:55.554Z,1.40
2023-05-16T16:38:24.137Z,1.60
2023-05-16T16:40:52.778Z,1.40
2023-05-16T16:43:21.449Z,1.92
2023-05-16T16:45:50.778Z,1.82
2023-05-16T16:48:19.397Z,1.67
2023-05-16T16:50:48.024Z,2.00
2023-05-16T16:53:16.654Z,2.15
2023-05-16T16:55:45.875Z,1.90
2023-05-16T16:58:14.600Z,2.50
2023-05-16T17:00:44.323Z,2.22
2023-05-16T17:03:13.314Z,2.25
2023-05-16T17:05:43.003Z,2.30
2023-05-16T17:08:12.106Z,2.30
2023-05-16T17:10:40.789Z,2.00
2023-05-16T17:13:11.062Z,2.50
2023-05-16T17:15:39.726Z,2.20
2023-05-16T17:18:08.428Z,2.30
2023-05-16T17:20:37.804Z,2.05
2023-05-16T17:23:06.620Z,1.80
2023-05-16T17:25:35.621Z,1.95
2023-05-16T17:28:04.264Z,1.92
2023-05-16T17:30:32.904Z,2.30
2023-05-16T17:33:01.876Z,2.05
2023-05-16T17:35:30.832Z,2.10
2023-05-16T17:37:59.732Z,2.10
2023-05-16T17:40:28.463Z,2.02
2023-05-16T17:42:57.124Z,2.15
2023-05-16T17:45:26.259Z,2.15
2023-05-16T17:47:55.128Z,2.12
2023-05-16T17:50:23.887Z,1.80
2023-05-16T17:52:52.577Z,1.92
2023-05-16T17:55:23.082Z,1.70
2023-05-16T17:57:51.776Z,1.92
2023-05-16T18:00:22.536Z,2.08
2023-05-16T18:02:52.338Z,1.95
2023-05-16T18:05:21.007Z,1.82
2023-05-16T18:07:49.627Z,1.77
2023-05-16T18:10:18.622Z,2.08
2023-05-16T18:12:47.643Z,2.15
2023-05-16T18:15:16.361Z,2.20
2023-05-16T18:17:45.367Z,1.60
2023-05-16T18:20:14.356Z,2.12
2023-05-16T18:22:43.600Z,1.60
2023-05-16T18:25:12.445Z,1.70
2023-05-16T18:27:41.354Z,1.80
2023-05-16T18:30:12.342Z,1.62
2023-05-16T18:32:41.420Z,1.62
2023-05-16T18:35:10.456Z,1.52
2023-05-16T18:37:39.123Z,1.40
2023-05-16T18:40:08.711Z,1.40
2023-05-16T18:42:37.355Z,1.37
2023-05-16T18:45:06.538Z,1.12
2023-05-16T18:47:35.222Z,1.40
2023-05-16T18:50:04.748Z,1.77
2023-05-16T18:52:35.194Z,1.95
2023-05-16T18:55:04.007Z,1.70
2023-05-16T18:57:32.710Z,1.20
2023-05-16T19:00:01.428Z,1.45
2023-05-16T19:02:41.379Z,1.52
2023-05-16T19:05:03.582Z,1.42
2023-05-16T19:07:32.347Z,1.70
2023-05-16T19:10:03.381Z,1.40
2023-05-16T19:12:31.351Z,1.80
2023-05-16T19:14:59.964Z,1.82
2023-05-16T19:17:30.599Z,1.70
2023-05-16T19:19:59.496Z,1.92
2023-05-16T19:22:28.192Z,1.32
2023-05-16T19:24:57.332Z,1.47
2023-05-16T19:27:26.132Z,1.22
2023-05-16T19:29:54.847Z,1.35
2023-05-16T19:32:23.485Z,1.42
2023-05-16T19:34:52.344Z,2.55
2023-05-16T19:37:21.201Z,1.80
2023-05-16T19:39:49.968Z,1.72
2023-05-16T19:42:18.635Z,1.40
2023-05-16T19:44:47.250Z,1.52
2023-05-16T19:47:16.045Z,1.57
2023-05-16T19:49:44.646Z,1.60
2023-05-16T19:52:14.542Z,1.75
2023-05-16T19:54:43.725Z,1.32
2023-05-16T19:57:12.441Z,1.35
2023-05-16T19:59:41.093Z,1.60
2023-05-16T20:02:09.884Z,1.75
2023-05-16T20:04:39.379Z,1.55
2023-05-16T20:07:08.001Z,1.70
2023-05-16T20:09:36.689Z,1.77
2023-05-16T20:12:05.780Z,1.77
2023-05-16T20:14:34.503Z,1.50
2023-05-16T20:17:03.162Z,1.42
2023-05-16T20:19:32.014Z,1.85
2023-05-16T20:22:02.750Z,1.95
2023-05-16T20:24:31.452Z,1.95
2023-05-16T20:27:00.287Z,1.87
2023-05-16T20:29:30.667Z,1.67
2023-05-16T20:31:59.468Z,1.62
2023-05-16T20:34:28.219Z,1.75
2023-05-16T20:36:56.838Z,1.55
2023-05-16T20:39:28.951Z,1.62
2023-05-16T20:41:57.623Z,1.82
2023-05-16T20:44:26.320Z,1.80
2023-05-16T20:46:54.952Z,1.40
2023-05-16T20:49:23.674Z,1.72
2023-05-16T20:51:52.332Z,1.47
2023-05-16T20:54:21.063Z,1.90
2023-05-16T20:56:50.126Z,1.85
2023-05-16T20:59:18.950Z,1.72
2023-05-16T21:01:47.766Z,1.95
2023-05-16T21:04:16.979Z,1.70
2023-05-16T21:06:46.031Z,1.67
2023-05-16T21:09:14.759Z,1.80
2023-05-16T21:11:43.599Z,1.70
2023-05-16T21:14:12.351Z,1.57
2023-05-16T21:16:41.143Z,1.72
2023-05-16T21:19:10.022Z,1.55
2023-05-16T21:21:40.703Z,1.55
2023-05-16T21:24:09.533Z,1.60
2023-05-16T21:26:38.363Z,1.77
2023-05-16T21:29:07.056Z,1.77
2023-05-16T21:31:37.288Z,1.98
2023-05-16T21:34:06.197Z,1.90
2023-05-16T21:36:34.898Z,1.70
2023-05-16T21:39:03.628Z,1.52
2023-05-16T21:41:32.309Z,1.70
2023-05-16T21:44:01.108Z,1.77
2023-05-16T21:46:29.876Z,1.62
2023-05-16T21:48:58.655Z,1.77
2023-05-16T21:51:27.390Z,1.82
2023-05-16T21:53:56.049Z,1.40
2023-05-16T21:56:26.079Z,1.70
2023-05-16T21:58:55.257Z,1.87
2023-05-16T22:01:28.721Z,2.75
2023-05-16T22:03:57.866Z,1.80
2023-05-16T22:06:26.810Z,1.80
2023-05-16T22:08:55.446Z,1.82
2023-05-16T22:11:24.159Z,1.87
2023-05-16T22:13:52.801Z,2.17
2023-05-16T22:16:21.419Z,1.62
2023-05-16T22:18:50.256Z,1.70
2023-05-16T22:21:20.656Z,1.70
2023-05-16T22:23:49.319Z,1.60
2023-05-16T22:26:17.951Z,1.90
2023-05-16T22:28:46.586Z,1.60
2023-05-16T22:31:15.278Z,1.40
2023-05-16T22:33:44.031Z,1.77
2023-05-16T22:36:12.772Z,1.87
2023-05-16T22:38:41.410Z,1.87
2023-05-16T22:41:10.077Z,1.60
2023-05-16T22:43:39.521Z,1.85
2023-05-16T22:46:08.197Z,1.90
2023-05-16T22:48:36.930Z,2.52
2023-05-16T22:51:05.997Z,2.50
2023-05-16T22:53:36.502Z,2.98
2023-05-16T22:56:06.926Z,2.77
2023-05-16T22:58:35.909Z,2.72
2023-05-16T23:01:04.716Z,2.12
2023-05-16T23:03:34.178Z,2.27
2023-05-16T23:06:02.937Z,2.37
2023-05-16T23:08:31.677Z,2.87
2023-05-16T23:11:00.489Z,3.15
2023-05-16T23:13:29.122Z,4.87
2023-05-16T23:15:57.856Z,3.60
2023-05-16T23:18:26.636Z,3.70
2023-05-16T23:20:55.299Z,4.05
2023-05-16T23:23:23.995Z,4.03
2023-05-16T23:25:52.754Z,3.90
2023-05-16T23:28:21.881Z,3.67
2023-05-16T23:30:51.431Z,3.08
2023-05-16T23:33:20.448Z,2.83
2023-05-16T23:35:49.261Z,2.60
2023-05-16T23:38:29.036Z,2.33
2023-05-16T23:40:58.510Z,2.62
2023-05-16T23:43:28.918Z,2.58
2023-05-16T23:45:57.629Z,2.60
2023-05-16T23:48:26.463Z,2.40
2023-05-16T23:50:55.193Z,2.40
2023-05-16T23:53:27.406Z,2.33
2023-05-16T23:56:00.254Z,2.08
2023-05-16T23:58:29.545Z,2.52
